Seminole, AL (36574)

5:33 PM CST on February 14, 2016 (GMT -0600)
Seminole Landing | | Change Station
CLOSE
Current Station
Personal Weather Station
Location: Seminole, AL
Elevation: 85 ft
Nearby Weather Stations

Elev 85 ft 30.52 °N, 87.47 °W | Updated 12 minutes ago

Partly Cloudy
Partly Cloudy
56.5 °F
Feels Like 56.5 °F
N
3.0
Wind Variable Wind from SE
Gusts 6.0 mph

Today
High -- | Low -- °F
--% Chance of Precip.
Yesterday
High -- | Low -- °F
Precip. -- in
Pressure 30.18 in
Visibility 10.0 miles
Clouds Mostly Cloudy 3400 ft
Dew Point 50 °F
Humidity 78%
Rainfall 0.00 in
Snow Depth Not available.
6:31 AM 5:36 PM
Waxing Crescent, 46% visible
SPECI KNPA 142323Z 11010KT 10SM BKN034 14/08 A3018 RMK T01440078
Pressure 30.18 in
Visibility 10.0 miles
Clouds Mostly Cloudy 3400 ft
Dew Point 50 °F
Humidity 78%
Rainfall 0.00 in
Snow Depth Not available.
6:31 AM 5:36 PM
Waxing Crescent, 46% visible
SPECI KNPA 142323Z 11010KT 10SM BKN034 14/08 A3018 RMK T01440078

10-Day Weather Forecast

Almanac

Astronomy

Feb. 14, 2016 Rise Set
Actual Time
Civil Twilight
Nautical Twilight
Astronomical Twilight
Moon
Length of Visible Light
Length of Day
Tomorrow will be .
, % of the Moon is Illuminated

Today's Extremes

State Highs State Lows

Community

WunderPhotos

Upload Photos

1,892,925 photos uploaded!

WunderBlog® & News

Nearby

Air Quality

  Air Quality AQ Index Pollutant
Not available.

Snow Depth

Station Depth Elevation

Earthquake Activity

City Distance Mag. Time & Date
Minimum magnitude displayed is 2.5.

Coastal Water Temperatures

Place Temperature

Stations

Nearby Weather Stations

Station Location Temp. Windchill Dew Point Humidity Wind Precip. Elev Updated Type
                   

Watches & Warnings

There are currently no watches in effect.